Time,TemperatureF,DewpointF,PressureIn,WindDirection,WindDirectionDegrees,WindSpeedMPH,WindSpeedGustMPH,Humidity,HourlyPrecipIn,Conditions,Clouds,dailyrainin,SoftwareType,DateUTC
2013-07-31 14:59:00,76.6,75.2,30.03,ESE,112,2.2,2.2,96,0.00,,,0.21,Graphweather,2013-07-31 18:59:00,
2013-07-31 15:03:00,76.8,77.0,30.03,ESE,112,1.1,2.9,96,0.00,,,0.21,Graphweather,2013-07-31 19:03:00,
2013-07-31 15:04:00,76.8,77.0,30.00,East,90,0.9,2.9,96,0.00,,,0.21,Graphweather,2013-07-31 19:04:00,
2013-07-31 15:07:00,76.8,77.0,30.00,East,90,1.3,1.6,96,0.00,,,0.21,Graphweather,2013-07-31 19:07:00,
2013-07-31 15:12:00,77.0,77.0,30.00,East,90,2.2,3.8,96,0.00,,,0.21,Graphweather,2013-07-31 19:12:00,
2013-07-31 15:15:00,77.0,77.0,30.00,East,90,1.3,3.1,96,0.00,,,0.21,Graphweather,2013-07-31 19:15:00,
2013-07-31 15:21:00,77.0,77.0,30.00,East,90,2.2,3.6,96,0.04,,,0.25,Graphweather,2013-07-31 19:21:00,
2013-07-31 15:26:00,76.8,77.0,30.00,East,90,2.0,3.6,96,0.04,,,0.25,Graphweather,2013-07-31 19:26:00,
2013-07-31 15:31:00,76.6,75.2,30.00,NE,45,2.2,2.5,96,0.04,,,0.25,Graphweather,2013-07-31 19:31:00,
2013-07-31 15:37:00,76.6,75.2,30.00,South,180,2.5,2.5,95,0.04,,,0.25,Graphweather,2013-07-31 19:37:00,
2013-07-31 15:42:00,76.8,75.2,30.00,ESE,112,2.0,2.7,95,0.04,,,0.25,Graphweather,2013-07-31 19:42:00,
2013-07-31 15:47:00,76.8,75.2,30.00,ESE,112,0.9,1.6,95,0.04,,,0.25,Graphweather,2013-07-31 19:47:00,
2013-07-31 15:52:00,77.0,75.2,30.00,South,180,2.0,2.0,95,0.00,,,0.25,Graphweather,2013-07-31 19:52:00,
2013-07-31 15:57:00,77.4,75.2,30.00,NE,45,2.2,3.6,94,0.00,,,0.25,Graphweather,2013-07-31 19:57:00,
2013-07-31 16:03:00,77.5,77.0,30.00,ENE,67,2.2,3.1,95,0.00,,,0.25,Graphweather,2013-07-31 20:03:00,
2013-07-31 16:08:00,77.9,77.0,29.97,East,90,2.2,3.1,95,0.00,,,0.25,Graphweather,2013-07-31 20:08:00,
2013-07-31 16:13:00,78.3,77.0,29.97,East,90,1.6,1.6,94,0.00,,,0.25,Graphweather,2013-07-31 20:13:00,
2013-07-31 16:24:00,78.8,77.0,30.00,South,180,2.2,2.7,94,0.00,,,0.25,Graphweather,2013-07-31 20:24:00,
2013-07-31 16:30:00,78.8,77.0,30.00,East,90,2.0,2.0,93,0.00,,,0.25,Graphweather,2013-07-31 20:30:00,
2013-07-31 16:35:00,78.8,77.0,30.00,East,90,1.6,2.0,93,0.00,,,0.25,Graphweather,2013-07-31 20:35:00,
2013-07-31 16:40:00,78.6,77.0,30.00,East,90,2.0,2.7,94,0.00,,,0.25,Graphweather,2013-07-31 20:40:00,
2013-07-31 16:45:00,78.6,77.0,30.00,NNE,22,2.5,4.0,93,0.00,,,0.25,Graphweather,2013-07-31 20:45:00,
2013-07-31 16:51:00,78.8,77.0,30.00,East,90,1.6,1.6,93,0.00,,,0.25,Graphweather,2013-07-31 20:51:00,
2013-07-31 16:56:00,78.8,77.0,30.00,East,90,1.1,1.6,93,0.00,,,0.25,Graphweather,2013-07-31 20:56:00,
2013-07-31 17:10:00,78.6,77.0,29.97,SSE,157,2.0,2.0,91,0.00,,,0.25,Graphweather,2013-07-31 21:10:00,
2013-07-31 17:15:00,78.6,75.2,29.97,NE,45,2.0,3.1,90,0.00,,,0.25,Graphweather,2013-07-31 21:15:00,
2013-07-31 17:20:00,78.6,75.2,29.97,East,90,1.6,1.6,90,0.00,,,0.25,Graphweather,2013-07-31 21:20:00,
2013-07-31 17:25:00,78.4,75.2,29.97,NE,45,2.2,2.2,90,0.00,,,0.25,Graphweather,2013-07-31 21:25:00,
2013-07-31 17:30:00,78.4,75.2,29.97,NNE,22,1.6,2.9,89,0.00,,,0.25,Graphweather,2013-07-31 21:30:00,
2013-07-31 17:39:00,78.4,75.2,29.97,East,90,2.0,2.7,89,0.00,,,0.25,Graphweather,2013-07-31 21:39:00,
2013-07-31 17:49:00,78.4,75.2,29.97,NE,45,2.7,3.4,91,0.00,,,0.25,Graphweather,2013-07-31 21:49:00,
2013-07-31 18:00:00,78.4,77.0,29.97,ENE,67,1.6,3.6,93,0.00,,,0.25,Graphweather,2013-07-31 22:00:00,
2013-07-31 18:11:00,78.4,75.2,29.97,South,180,1.1,2.0,92,0.00,,,0.25,Graphweather,2013-07-31 22:11:00,
2013-07-31 18:22:00,78.3,77.0,29.97,ESE,112,2.0,2.9,93,0.00,,,0.25,Graphweather,2013-07-31 22:22:00,
2013-07-31 18:27:00,78.3,77.0,29.97,SE,135,1.3,2.5,93,0.00,,,0.25,Graphweather,2013-07-31 22:27:00,
2013-07-31 18:39:00,78.1,77.0,30.00,ESE,112,1.1,2.5,93,0.00,,,0.25,Graphweather,2013-07-31 22:39:00,
2013-07-31 18:45:00,78.1,77.0,30.00,ENE,67,2.7,6.0,93,0.00,,,0.25,Graphweather,2013-07-31 22:45:00,
2013-07-31 18:50:00,77.9,77.0,29.97,SSE,157,1.1,3.6,93,0.00,,,0.25,Graphweather,2013-07-31 22:50:00,
2013-07-31 18:55:00,77.9,77.0,29.97,South,180,1.3,2.9,93,0.00,,,0.25,Graphweather,2013-07-31 22:55:00,
2013-07-31 19:01:00,77.7,75.2,29.97,East,90,2.2,3.4,93,0.00,,,0.25,Graphweather,2013-07-31 23:01:00,
2013-07-31 19:06:00,77.7,75.2,29.97,SSE,157,2.0,2.5,94,0.00,,,0.25,Graphweather,2013-07-31 23:06:00,
2013-07-31 19:11:00,77.9,77.0,29.97,ENE,67,2.0,3.1,93,0.00,,,0.25,Graphweather,2013-07-31 23:11:00,
2013-07-31 19:17:00,77.9,77.0,29.97,ENE,67,2.2,2.2,94,0.00,,,0.25,Graphweather,2013-07-31 23:17:00,
2013-07-31 19:23:00,77.7,75.2,29.97,SSE,157,2.0,2.5,94,0.00,,,0.25,Graphweather,2013-07-31 23:23:00,
2013-07-31 19:35:00,77.7,75.2,30.00,SW,225,2.2,2.2,94,0.00,,,0.25,Graphweather,2013-07-31 23:35:00,
2013-07-31 19:41:00,77.7,75.2,30.00,SSW,202,1.3,1.6,94,0.00,,,0.25,Graphweather,2013-07-31 23:41:00,
2013-07-31 19:54:00,77.7,77.0,30.00,SSE,157,2.0,3.1,95,0.00,,,0.25,Graphweather,2013-07-31 23:54:00,
2013-07-31 19:59:00,77.7,77.0,30.00,WSW,247,2.2,2.9,95,0.00,,,0.25,Graphweather,2013-07-31 23:59:00,
2013-07-31 20:05:00,77.7,77.0,30.00,SSW,202,1.3,1.3,95,0.00,,,0.25,Graphweather,2013-08-01 00:05:00,
2013-07-31 20:10:00,77.5,77.0,30.00,SSE,157,1.3,1.6,95,0.00,,,0.25,Graphweather,2013-08-01 00:10:00,
2013-07-31 20:16:00,77.7,77.0,30.00,East,90,1.3,2.5,95,0.00,,,0.25,Graphweather,2013-08-01 00:16:00,
2013-07-31 20:21:00,77.7,77.0,30.00,South,180,2.0,4.0,95,0.00,,,0.25,Graphweather,2013-08-01 00:21:00,
2013-07-31 20:32:00,78.1,77.0,30.00,SW,225,1.3,2.9,95,0.00,,,0.25,Graphweather,2013-08-01 00:32:00,
2013-07-31 20:38:00,78.1,77.0,30.03,ESE,112,0.0,2.2,95,0.00,,,0.25,Graphweather,2013-08-01 00:38:00,
2013-07-31 20:43:00,78.1,77.0,30.03,NNE,22,2.5,3.1,95,0.00,,,0.25,Graphweather,2013-08-01 00:43:00,
2013-07-31 20:58:00,78.3,77.0,30.03,NE,45,1.3,2.0,95,0.00,,,0.25,Graphweather,2013-08-01 00:58:00,
2013-07-31 21:03:00,78.4,77.0,30.03,SSW,202,1.1,1.3,95,0.00,,,0.25,Graphweather,2013-08-01 01:03:00,
2013-07-31 21:08:00,78.4,77.0,30.03,SW,225,1.6,2.2,95,0.00,,,0.25,Graphweather,2013-08-01 01:08:00,
2013-07-31 21:14:00,78.4,77.0,30.03,East,90,2.0,2.9,95,0.00,,,0.25,Graphweather,2013-08-01 01:14:00,
2013-07-31 21:19:00,78.4,77.0,30.03,ESE,112,2.2,2.2,95,0.00,,,0.25,Graphweather,2013-08-01 01:19:00,
2013-07-31 21:24:00,78.4,77.0,30.03,East,90,1.3,1.3,95,0.00,,,0.25,Graphweather,2013-08-01 01:24:00,
2013-07-31 21:30:00,78.4,77.0,30.03,SSW,202,2.2,2.5,95,0.00,,,0.25,Graphweather,2013-08-01 01:30:00,
2013-07-31 21:35:00,78.4,77.0,30.03,SE,135,2.0,2.0,95,0.00,,,0.25,Graphweather,2013-08-01 01:35:00,
2013-07-31 21:40:00,78.4,77.0,30.03,ENE,67,1.6,2.7,95,0.00,,,0.25,Graphweather,2013-08-01 01:40:00,
2013-07-31 21:45:00,78.4,77.0,30.03,East,90,1.6,1.6,94,0.00,,,0.25,Graphweather,2013-08-01 01:45:00,
2013-07-31 21:58:00,78.6,77.0,30.03,East,90,2.5,2.5,94,0.00,,,0.25,Graphweather,2013-08-01 01:58:00,
2013-07-31 22:03:00,78.6,77.0,30.03,SSE,157,2.5,2.5,94,0.00,,,0.25,Graphweather,2013-08-01 02:03:00,
2013-07-31 22:08:00,78.6,77.0,30.03,SE,135,2.0,3.1,93,0.00,,,0.25,Graphweather,2013-08-01 02:08:00,
2013-07-31 22:14:00,78.6,77.0,30.03,SSE,157,2.7,2.9,92,0.00,,,0.25,Graphweather,2013-08-01 02:14:00,
2013-07-31 22:19:00,78.6,77.0,30.03,SSE,157,2.2,2.2,92,0.00,,,0.25,Graphweather,2013-08-01 02:19:00,
2013-07-31 22:24:00,78.6,77.0,30.03,East,90,2.5,2.5,93,0.00,,,0.25,Graphweather,2013-08-01 02:24:00,
2013-07-31 22:29:00,78.6,77.0,30.03,SE,135,3.6,3.8,92,0.00,,,0.25,Graphweather,2013-08-01 02:29:00,
2013-07-31 22:34:00,78.6,77.0,30.03,WSW,247,1.1,1.3,92,0.00,,,0.25,Graphweather,2013-08-01 02:34:00,
2013-07-31 22:40:00,78.8,77.0,30.03,South,180,2.0,3.4,91,0.00,,,0.25,Graphweather,2013-08-01 02:40:00,
2013-07-31 22:45:00,78.6,77.0,30.03,ESE,112,1.3,2.5,92,0.00,,,0.25,Graphweather,2013-08-01 02:45:00,
2013-07-31 22:50:00,78.6,77.0,30.03,NNE,22,2.0,4.0,92,0.00,,,0.25,Graphweather,2013-08-01 02:50:00,
2013-07-31 22:55:00,78.6,77.0,30.03,NE,45,2.7,2.9,92,0.00,,,0.25,Graphweather,2013-08-01 02:55:00,
2013-07-31 23:00:00,78.6,77.0,30.03,East,90,2.7,2.7,92,0.00,,,0.25,Graphweather,2013-08-01 03:00:00,
2013-07-31 23:06:00,78.6,77.0,30.03,NNE,22,2.7,3.8,92,0.00,,,0.25,Graphweather,2013-08-01 03:06:00,
2013-07-31 23:11:00,78.8,77.0,30.03,ENE,67,2.7,4.5,92,0.00,,,0.25,Graphweather,2013-08-01 03:11:00,
2013-07-31 23:16:00,78.6,75.2,30.03,East,90,2.5,3.8,90,0.00,,,0.25,Graphweather,2013-08-01 03:16:00,
2013-07-31 23:21:00,78.6,75.2,30.03,East,90,2.7,3.8,90,0.00,,,0.25,Graphweather,2013-08-01 03:21:00,
2013-07-31 23:27:00,78.6,75.2,30.03,ENE,67,3.1,3.1,90,0.00,,,0.25,Graphweather,2013-08-01 03:27:00,
2013-07-31 23:32:00,78.8,77.0,30.03,ESE,112,2.7,2.9,91,0.00,,,0.25,Graphweather,2013-08-01 03:32:00,
2013-07-31 23:37:00,78.6,77.0,30.03,South,180,2.5,3.4,92,0.00,,,0.25,Graphweather,2013-08-01 03:37:00,
2013-07-31 23:42:00,78.6,77.0,30.03,SE,135,2.2,2.5,93,0.00,,,0.25,Graphweather,2013-08-01 03:42:00,
2013-07-31 23:48:00,78.6,77.0,30.03,East,90,2.5,3.1,91,0.00,,,0.25,Graphweather,2013-08-01 03:48:00,
2013-07-31 23:53:00,78.6,77.0,30.03,East,90,2.2,3.6,91,0.00,,,0.25,Graphweather,2013-08-01 03:53:00,
2013-07-31 23:58:00,78.6,77.0,30.03,SSW,202,2.0,2.0,91,0.00,,,0.25,Graphweather,2013-08-01 03:58:00,